createdAt,value
2024-03-06T00:00:23.842Z,0.80
2024-03-06T00:02:50.536Z,0.40
2024-03-06T00:05:17.267Z,1.90
2024-03-06T00:07:43.926Z,0.90
2024-03-06T00:10:10.510Z,0.70
2024-03-06T00:12:37.056Z,0.60
2024-03-06T00:15:03.950Z,0.60
2024-03-06T00:17:30.829Z,0.50
2024-03-06T00:19:57.507Z,0.40
2024-03-06T00:22:24.587Z,0.80
2024-03-06T00:24:52.373Z,0.80
2024-03-06T00:27:19.407Z,1.50
2024-03-06T00:29:46.374Z,0.40
2024-03-06T00:32:13.076Z,0.60
2024-03-06T00:34:39.696Z,0.60
2024-03-06T00:37:06.292Z,0.40
2024-03-06T00:39:32.810Z,0.30
2024-03-06T00:41:59.390Z,0.60
2024-03-06T00:44:25.972Z,0.60
2024-03-06T00:46:52.572Z,1.00
2024-03-06T00:49:19.192Z,0.40
2024-03-06T00:51:49.282Z,0.70
2024-03-06T00:54:17.860Z,0.80
2024-03-06T00:56:44.871Z,0.50
2024-03-06T00:59:12.186Z,0.80
2024-03-06T01:01:39.083Z,1.40
2024-03-06T01:04:05.903Z,1.00
2024-03-06T01:06:32.449Z,1.10
2024-03-06T01:08:59.758Z,1.10
2024-03-06T01:11:27.839Z,1.10
2024-03-06T01:13:55.174Z,0.80
2024-03-06T01:16:21.850Z,0.80
2024-03-06T01:18:48.517Z,0.40
2024-03-06T01:21:15.094Z,0.40
2024-03-06T01:23:41.806Z,0.60
2024-03-06T01:26:08.443Z,1.00
2024-03-06T01:28:35.247Z,0.50
2024-03-06T01:31:01.812Z,0.40
2024-03-06T01:33:28.593Z,0.50
2024-03-06T01:35:55.247Z,0.20
2024-03-06T01:38:21.841Z,0.40
2024-03-06T01:40:48.490Z,0.40
2024-03-06T01:43:21.208Z,0.50
2024-03-06T01:45:49.301Z,0.80
2024-03-06T01:48:19.035Z,0.40
2024-03-06T01:50:45.981Z,0.60
2024-03-06T01:53:14.473Z,0.20
2024-03-06T01:55:41.780Z,1.00
2024-03-06T01:58:09.641Z,0.90
2024-03-06T02:00:37.360Z,0.40
2024-03-06T02:03:04.338Z,0.40
2024-03-06T02:05:32.311Z,1.00
2024-03-06T02:08:03.742Z,0.60
2024-03-06T02:10:30.366Z,0.60
2024-03-06T02:12:56.986Z,0.40
2024-03-06T02:15:23.667Z,0.30
2024-03-06T02:17:50.832Z,0.70
2024-03-06T02:20:17.789Z,0.40
2024-03-06T02:22:45.175Z,0.30
2024-03-06T02:25:13.107Z,0.40
2024-03-06T02:27:39.744Z,0.40
2024-03-06T02:30:07.293Z,0.70
2024-03-06T02:32:33.960Z,0.20
2024-03-06T02:35:04.284Z,0.50
2024-03-06T02:37:31.006Z,0.70
2024-03-06T02:39:57.575Z,0.30
2024-03-06T02:42:24.134Z,0.30
2024-03-06T02:44:50.657Z,0.40
2024-03-06T02:47:17.389Z,0.40
2024-03-06T02:49:44.072Z,0.40
2024-03-06T02:52:10.684Z,0.40
2024-03-06T02:54:37.341Z,0.30
2024-03-06T02:57:03.991Z,0.40
2024-03-06T02:59:31.237Z,0.30
2024-03-06T03:01:57.990Z,0.50
2024-03-06T03:04:24.694Z,0.90
2024-03-06T03:06:51.218Z,0.50
2024-03-06T03:09:17.808Z,1.20
2024-03-06T03:11:47.408Z,0.40
2024-03-06T03:14:14.035Z,0.50
2024-03-06T03:16:40.711Z,0.50
2024-03-06T03:19:09.534Z,0.50
2024-03-06T03:21:36.195Z,0.70
2024-03-06T03:24:02.814Z,0.60
2024-03-06T03:26:29.415Z,0.30
2024-03-06T03:28:56.885Z,0.50
2024-03-06T03:31:23.529Z,0.40
2024-03-06T03:33:50.067Z,0.40
2024-03-06T03:36:16.719Z,0.30
2024-03-06T03:38:43.300Z,0.70
2024-03-06T03:41:11.009Z,0.20
2024-03-06T03:43:38.118Z,0.40
2024-03-06T03:46:05.606Z,0.30
2024-03-06T03:48:32.959Z,0.40
2024-03-06T03:50:59.584Z,0.70
2024-03-06T03:53:26.100Z,0.50
2024-03-06T03:55:52.663Z,0.50
2024-03-06T03:58:19.337Z,0.40
2024-03-06T04:00:46.319Z,0.30
2024-03-06T04:03:13.047Z,0.70
2024-03-06T04:05:40.509Z,0.20
2024-03-06T04:08:08.041Z,0.30
2024-03-06T04:10:34.937Z,0.30
2024-03-06T04:13:01.491Z,0.60
2024-03-06T04:15:28.158Z,0.30
2024-03-06T04:17:54.867Z,0.40
2024-03-06T04:20:21.574Z,0.60
2024-03-06T04:22:49.379Z,0.40
2024-03-06T04:25:15.985Z,0.40
2024-03-06T04:27:42.561Z,0.20
2024-03-06T04:30:10.370Z,0.40
2024-03-06T04:32:37.032Z,0.50
2024-03-06T04:35:03.867Z,0.60
2024-03-06T04:37:31.893Z,0.30
2024-03-06T04:39:58.630Z,0.70
2024-03-06T04:42:25.176Z,0.40
2024-03-06T04:44:51.768Z,0.50
2024-03-06T04:47:18.354Z,0.30
2024-03-06T04:49:45.235Z,0.50
2024-03-06T04:52:11.869Z,0.40
2024-03-06T04:54:38.810Z,0.20
2024-03-06T04:57:05.559Z,0.60
2024-03-06T04:59:32.069Z,0.30
2024-03-06T05:01:58.705Z,0.40
2024-03-06T05:59:12.015Z,0.20
2024-03-06T06:01:38.652Z,0.40
2024-03-06T06:04:07.894Z,0.30
2024-03-06T06:06:35.135Z,0.60
2024-03-06T06:09:01.791Z,0.40
2024-03-06T06:11:29.008Z,0.40
2024-03-06T06:13:55.835Z,0.30
2024-03-06T06:16:22.583Z,0.40
2024-03-06T06:18:49.288Z,0.90
2024-03-06T06:21:17.348Z,0.30
2024-03-06T06:23:44.154Z,0.20
2024-03-06T06:26:11.780Z,0.30
2024-03-06T06:28:38.640Z,0.30
2024-03-06T06:31:05.519Z,0.40
2024-03-06T06:33:32.289Z,0.30
2024-03-06T06:35:58.864Z,0.30
2024-03-06T06:38:25.514Z,0.40
2024-03-06T06:40:52.522Z,0.30
2024-03-06T06:43:19.447Z,0.60
2024-03-06T06:45:46.093Z,0.40
2024-03-06T06:48:12.912Z,0.30
2024-03-06T06:50:40.775Z,0.30
2024-03-06T06:53:07.448Z,0.30
2024-03-06T06:55:34.070Z,0.60
2024-03-06T06:58:00.672Z,0.30
2024-03-06T07:00:27.595Z,0.20
2024-03-06T07:02:54.168Z,0.30
2024-03-06T07:05:20.851Z,0.30
2024-03-06T07:07:48.404Z,0.30
2024-03-06T07:10:16.103Z,0.30
2024-03-06T07:12:42.762Z,0.10
2024-03-06T07:15:09.559Z,0.30
2024-03-06T07:17:36.477Z,0.20
2024-03-06T07:20:06.633Z,0.50
2024-03-06T07:22:35.330Z,0.40
2024-03-06T07:25:06.804Z,0.60
2024-03-06T07:27:33.495Z,0.30
2024-03-06T07:30:00.094Z,0.60
2024-03-06T07:32:26.748Z,0.20
2024-03-06T07:34:53.361Z,0.50
2024-03-06T07:37:20.525Z,0.40
2024-03-06T07:39:48.781Z,0.40
2024-03-06T07:42:16.896Z,0.20
2024-03-06T07:44:43.507Z,0.50
2024-03-06T07:47:10.176Z,0.40
2024-03-06T07:49:36.857Z,0.50
2024-03-06T07:52:03.532Z,0.10
2024-03-06T07:54:30.143Z,0.40
2024-03-06T07:56:56.668Z,0.20
2024-03-06T07:59:23.280Z,0.20
2024-03-06T08:01:49.869Z,0.50
2024-03-06T08:04:16.590Z,0.10
2024-03-06T08:06:43.187Z,0.20
2024-03-06T08:09:10.677Z,0.30
2024-03-06T08:11:37.280Z,0.40
2024-03-06T08:14:04.058Z,0.30
2024-03-06T08:16:33.791Z,0.50
2024-03-06T08:21:28.485Z,0.20
2024-03-06T08:23:55.027Z,0.20
2024-03-06T08:26:21.645Z,0.30
2024-03-06T08:28:48.242Z,0.30
2024-03-06T08:31:14.805Z,0.20
2024-03-06T08:33:41.652Z,0.40
2024-03-06T08:36:08.595Z,0.50
2024-03-06T08:38:35.368Z,0.30
2024-03-06T08:41:02.024Z,0.40
2024-03-06T08:43:28.605Z,0.30
2024-03-06T08:45:55.276Z,0.30
2024-03-06T08:48:22.871Z,0.50
2024-03-06T08:50:49.558Z,0.20
2024-03-06T08:53:17.289Z,0.10
2024-03-06T08:55:43.861Z,0.60
2024-03-06T08:58:10.410Z,0.70
2024-03-06T09:00:37.843Z,0.30
2024-03-06T09:03:04.421Z,0.40
2024-03-06T09:05:31.058Z,0.20
2024-03-06T09:08:01.555Z,0.30
2024-03-06T09:10:29.412Z,0.20
2024-03-06T09:12:55.912Z,0.30
2024-03-06T09:15:22.561Z,0.20
2024-03-06T09:17:50.195Z,0.30
2024-03-06T09:20:18.769Z,0.40
2024-03-06T09:22:45.397Z,0.20
2024-03-06T09:25:15.831Z,0.20
2024-03-06T09:30:10.663Z,0.30
2024-03-06T09:32:39.577Z,0.30
2024-03-06T09:35:08.041Z,0.30
2024-03-06T09:37:34.593Z,0.40
2024-03-06T09:40:01.190Z,0.30
2024-03-06T09:42:28.024Z,0.20
2024-03-06T09:44:54.672Z,0.30
2024-03-06T09:47:28.106Z,0.10
2024-03-06T09:49:55.381Z,0.20
2024-03-06T09:52:26.101Z,0.30
2024-03-06T09:54:56.036Z,0.60
2024-03-06T09:57:22.684Z,0.20
2024-03-06T09:59:49.280Z,0.40
2024-03-06T10:02:39.685Z,0.40
2024-03-06T10:05:07.087Z,0.40
2024-03-06T10:07:33.958Z,0.30
2024-03-06T10:10:00.625Z,0.50
2024-03-06T10:12:30.028Z,0.50
2024-03-06T10:14:58.253Z,0.30
2024-03-06T10:17:25.286Z,0.40
2024-03-06T10:19:53.319Z,0.30
2024-03-06T10:22:21.831Z,0.20
2024-03-06T10:24:49.034Z,0.30
2024-03-06T10:27:19.966Z,0.20
2024-03-06T10:29:46.838Z,0.10
2024-03-06T10:32:20.253Z,0.40
2024-03-06T10:34:47.239Z,0.70
2024-03-06T10:37:14.145Z,0.40
2024-03-06T10:39:45.765Z,0.30
2024-03-06T10:42:14.627Z,0.30
2024-03-06T10:44:52.777Z,0.20
2024-03-06T10:47:20.990Z,0.30
2024-03-06T10:49:48.810Z,0.30
2024-03-06T10:52:18.175Z,0.20
2024-03-06T10:54:47.553Z,0.20
2024-03-06T10:57:15.215Z,0.30
2024-03-06T10:59:43.868Z,0.30
2024-03-06T11:02:11.351Z,0.10
2024-03-06T11:04:41.622Z,0.30
2024-03-06T11:07:12.475Z,0.30
2024-03-06T11:09:41.438Z,0.30
2024-03-06T11:12:08.689Z,0.60
2024-03-06T11:14:40.294Z,0.20
2024-03-06T11:17:09.236Z,0.20
2024-03-06T11:20:02.389Z,0.30
2024-03-06T11:23:01.312Z,0.20
2024-03-06T11:25:47.092Z,0.20
2024-03-06T11:28:18.713Z,0.30
2024-03-06T11:31:14.803Z,0.40
2024-03-06T11:33:46.897Z,0.10
2024-03-06T11:36:24.213Z,0.40
2024-03-06T11:38:58.390Z,0.10
2024-03-06T11:41:30.751Z,0.20
2024-03-06T11:44:00.860Z,0.40
2024-03-06T11:46:47.020Z,0.40
2024-03-06T11:49:25.643Z,0.10
2024-03-06T11:51:54.190Z,0.20
2024-03-06T11:54:24.912Z,0.20
2024-03-06T11:56:55.122Z,0.20
2024-03-06T11:59:25.995Z,0.10
2024-03-06T12:04:39.944Z,0.40
2024-03-06T12:07:10.853Z,0.20
2024-03-06T12:09:42.461Z,0.30
2024-03-06T12:12:11.772Z,0.10
2024-03-06T12:14:41.034Z,0.10
2024-03-06T12:17:14.360Z,0.20
2024-03-06T12:19:44.370Z,0.10
2024-03-06T12:22:11.968Z,0.40
2024-03-06T12:24:38.658Z,0.10
2024-03-06T12:27:08.477Z,0.30
2024-03-06T12:29:37.014Z,0.20
2024-03-06T12:32:04.264Z,0.10
2024-03-06T12:34:31.423Z,0.10
2024-03-06T12:37:12.505Z,0.20
2024-03-06T12:39:42.896Z,0.20
2024-03-06T12:42:10.933Z,0.00
2024-03-06T12:44:37.629Z,0.20
2024-03-06T12:47:04.279Z,0.30
2024-03-06T12:49:30.867Z,0.20
2024-03-06T12:51:57.446Z,0.20
2024-03-06T12:54:24.123Z,0.10
2024-03-06T12:56:50.810Z,0.40
2024-03-06T12:59:17.432Z,0.50
2024-03-06T13:01:44.297Z,0.40
2024-03-06T13:04:13.306Z,0.40
2024-03-06T13:06:43.735Z,0.20
2024-03-06T13:09:11.090Z,0.10
2024-03-06T13:11:37.880Z,0.30
2024-03-06T13:14:04.606Z,0.50
2024-03-06T13:16:31.222Z,0.20
2024-03-06T13:18:58.555Z,0.20
2024-03-06T13:21:25.604Z,0.30
2024-03-06T13:23:52.190Z,0.30
2024-03-06T13:26:19.431Z,0.50
2024-03-06T13:28:47.422Z,0.30
2024-03-06T13:31:14.447Z,0.30
2024-03-06T13:33:41.169Z,0.40
2024-03-06T13:36:09.415Z,0.60
2024-03-06T13:38:36.667Z,0.50
2024-03-06T13:41:03.953Z,0.30
2024-03-06T13:43:30.916Z,0.10
2024-03-06T13:45:57.494Z,0.20
2024-03-06T13:48:24.356Z,0.40
2024-03-06T13:50:51.277Z,0.10
2024-03-06T13:53:18.531Z,0.20
2024-03-06T13:55:45.191Z,0.10
2024-03-06T13:58:11.976Z,0.20
2024-03-06T14:00:38.551Z,0.30
2024-03-06T14:03:05.189Z,0.10
2024-03-06T14:05:32.101Z,0.20
2024-03-06T14:07:58.773Z,0.40
2024-03-06T14:10:27.705Z,0.20
2024-03-06T14:12:56.106Z,0.10
2024-03-06T14:15:24.838Z,0.20
2024-03-06T14:17:51.796Z,0.10
2024-03-06T14:20:18.678Z,0.30
2024-03-06T14:22:45.567Z,0.40
2024-03-06T14:25:12.555Z,0.40
2024-03-06T14:27:39.580Z,0.30
2024-03-06T14:30:11.644Z,0.40
2024-03-06T14:32:38.588Z,0.70
2024-03-06T14:35:05.828Z,0.20
2024-03-06T14:37:32.511Z,0.20
2024-03-06T14:40:00.492Z,0.50
2024-03-06T14:42:28.649Z,0.10
2024-03-06T14:44:55.211Z,0.00
2024-03-06T14:47:21.768Z,0.10
2024-03-06T14:49:48.352Z,0.40
2024-03-06T14:52:14.978Z,1.00
2024-03-06T14:54:44.712Z,0.20
2024-03-06T14:57:13.637Z,0.30
2024-03-06T14:59:40.647Z,0.20
2024-03-06T15:02:07.623Z,0.20
2024-03-06T15:04:34.490Z,0.30
2024-03-06T15:07:01.324Z,0.50
2024-03-06T15:09:27.969Z,0.20
2024-03-06T15:11:55.472Z,0.50
2024-03-06T15:14:22.710Z,0.10
2024-03-06T15:16:49.454Z,0.10
2024-03-06T15:19:16.814Z,0.80
2024-03-06T15:21:43.420Z,0.30
2024-03-06T15:24:10.083Z,0.90
2024-03-06T15:26:37.917Z,0.70
2024-03-06T15:29:06.245Z,0.70
2024-03-06T15:31:33.167Z,0.50
2024-03-06T15:33:59.785Z,0.40
2024-03-06T15:36:26.409Z,0.50
2024-03-06T15:38:56.818Z,0.50
2024-03-06T15:41:23.827Z,0.40
2024-03-06T15:43:50.756Z,0.40
2024-03-06T15:46:17.919Z,0.40
2024-03-06T15:48:44.784Z,0.60
2024-03-06T15:51:11.572Z,0.40
2024-03-06T15:53:38.325Z,0.30
2024-03-06T15:56:05.421Z,0.20
2024-03-06T15:58:32.072Z,0.40
2024-03-06T16:01:01.328Z,0.70
2024-03-06T16:03:29.293Z,0.30
2024-03-06T16:06:02.847Z,0.90
2024-03-06T16:08:38.769Z,0.30
2024-03-06T16:11:05.905Z,0.50
2024-03-06T16:13:33.328Z,0.60
2024-03-06T16:15:59.969Z,0.50
2024-03-06T16:18:26.649Z,0.20
2024-03-06T16:20:53.657Z,0.10
2024-03-06T16:23:20.590Z,0.40
2024-03-06T16:25:47.684Z,0.40
2024-03-06T16:28:14.649Z,0.30
2024-03-06T16:30:41.230Z,0.30
2024-03-06T16:33:07.978Z,0.40
2024-03-06T16:35:35.321Z,1.20
2024-03-06T16:38:02.058Z,0.40
2024-03-06T16:40:28.688Z,0.50
2024-03-06T16:42:55.222Z,0.60
2024-03-06T16:45:21.961Z,0.40
2024-03-06T16:47:48.672Z,0.30
2024-03-06T16:50:15.634Z,0.30
2024-03-06T16:52:42.641Z,0.70
2024-03-06T16:55:09.589Z,0.30
2024-03-06T16:57:38.432Z,0.40
2024-03-06T17:00:09.189Z,0.40
2024-03-06T17:05:03.756Z,0.20
2024-03-06T17:07:30.531Z,1.60
2024-03-06T17:09:57.165Z,0.30
2024-03-06T17:12:23.939Z,0.60
2024-03-06T17:14:50.830Z,0.30
2024-03-06T17:17:17.704Z,0.30
2024-03-06T17:19:46.256Z,0.40
2024-03-06T17:22:13.616Z,0.50
2024-03-06T17:24:41.491Z,0.50
2024-03-06T17:27:08.128Z,0.70
2024-03-06T17:29:34.901Z,0.30
2024-03-06T17:32:01.530Z,0.40
2024-03-06T17:34:28.062Z,0.30
2024-03-06T17:36:54.619Z,0.50
2024-03-06T17:39:26.609Z,0.60
2024-03-06T17:41:54.185Z,0.30
2024-03-06T17:44:21.256Z,0.30
2024-03-06T17:46:48.035Z,0.20
2024-03-06T17:49:15.122Z,0.30
2024-03-06T17:51:43.163Z,0.60
2024-03-06T17:54:13.956Z,0.50
2024-03-06T17:56:40.636Z,0.30
2024-03-06T17:59:08.068Z,0.60
2024-03-06T18:01:34.770Z,0.30
2024-03-06T18:04:01.585Z,0.30
2024-03-06T18:06:28.182Z,0.40
2024-03-06T18:08:55.956Z,0.50
2024-03-06T18:11:23.051Z,0.30
2024-03-06T18:13:49.858Z,0.50
2024-03-06T18:16:16.473Z,0.30
2024-03-06T18:18:43.325Z,0.20
2024-03-06T18:21:10.177Z,0.40
2024-03-06T18:23:37.548Z,0.40
2024-03-06T18:26:04.513Z,0.50
2024-03-06T18:28:31.331Z,0.30
2024-03-06T18:30:59.280Z,0.30
2024-03-06T18:33:27.009Z,0.30
2024-03-06T18:35:53.747Z,0.50
2024-03-06T18:38:20.354Z,0.90
2024-03-06T18:40:47.034Z,0.40
2024-03-06T18:43:13.621Z,0.30
2024-03-06T18:45:40.439Z,1.30
2024-03-06T18:48:07.665Z,0.40
2024-03-06T18:50:34.379Z,0.40
2024-03-06T18:53:02.586Z,0.50
2024-03-06T18:55:29.953Z,0.50
2024-03-06T18:57:56.546Z,0.50
2024-03-06T19:00:24.220Z,0.40
2024-03-06T19:02:52.596Z,0.40
2024-03-06T19:05:20.494Z,0.60
2024-03-06T19:07:48.098Z,0.40
2024-03-06T19:10:14.721Z,0.40
2024-03-06T19:12:43.198Z,0.50
2024-03-06T19:15:10.710Z,0.20
2024-03-06T19:17:37.476Z,0.90
2024-03-06T19:20:06.637Z,0.60
2024-03-06T19:22:33.847Z,1.20
2024-03-06T19:25:00.418Z,0.50
2024-03-06T19:27:28.892Z,0.30
2024-03-06T19:29:56.509Z,1.70
2024-03-06T19:32:23.659Z,0.80
2024-03-06T19:34:50.285Z,0.50
2024-03-06T19:37:17.493Z,0.50
2024-03-06T19:39:44.121Z,0.40
2024-03-06T19:42:10.751Z,0.70
2024-03-06T19:44:37.502Z,0.30
2024-03-06T19:47:05.364Z,0.40
2024-03-06T19:49:33.851Z,0.70
2024-03-06T19:52:00.430Z,0.70
2024-03-06T19:54:30.426Z,0.30
2024-03-06T19:56:59.886Z,0.40
2024-03-06T19:59:26.680Z,0.80
2024-03-06T20:01:55.436Z,0.40
2024-03-06T20:04:22.278Z,0.40
2024-03-06T20:06:49.606Z,0.40
2024-03-06T20:09:16.887Z,0.50
2024-03-06T20:11:43.580Z,0.30
2024-03-06T20:14:10.624Z,0.40
2024-03-06T20:16:37.687Z,1.90
2024-03-06T20:19:04.725Z,0.30
2024-03-06T20:21:32.328Z,0.30
2024-03-06T20:23:58.955Z,0.50
2024-03-06T20:26:26.385Z,2.00
2024-03-06T20:28:53.049Z,0.40
2024-03-06T20:31:19.746Z,0.60
2024-03-06T20:33:46.412Z,0.50
2024-03-06T20:36:13.341Z,0.80
2024-03-06T20:38:40.069Z,1.70
2024-03-06T20:41:06.738Z,0.60
2024-03-06T20:43:40.183Z,0.60
2024-03-06T20:46:07.809Z,0.90
2024-03-06T20:48:35.558Z,1.40
2024-03-06T20:51:03.609Z,1.60
2024-03-06T20:53:30.247Z,4.80
2024-03-06T20:55:56.902Z,3.80
2024-03-06T20:58:23.427Z,3.40
2024-03-06T21:00:50.863Z,4.80
2024-03-06T21:03:17.510Z,4.90
2024-03-06T21:05:44.575Z,5.70
2024-03-06T21:08:11.244Z,3.40
2024-03-06T21:10:39.909Z,3.40
2024-03-06T21:13:07.629Z,4.90
2024-03-06T21:15:36.191Z,4.90
2024-03-06T21:18:03.142Z,4.20
2024-03-06T21:20:30.026Z,3.60
2024-03-06T21:22:56.924Z,7.10
2024-03-06T21:25:24.973Z,7.90
2024-03-06T21:27:51.626Z,7.70
2024-03-06T21:30:19.792Z,9.20
2024-03-06T21:32:46.704Z,9.80
2024-03-06T21:35:14.084Z,8.70
2024-03-06T21:37:41.518Z,7.70
2024-03-06T21:40:15.452Z,8.90
2024-03-06T21:42:43.489Z,10.30
2024-03-06T21:45:10.186Z,8.40
2024-03-06T21:47:37.409Z,9.30
2024-03-06T21:50:07.141Z,6.30
2024-03-06T21:52:35.006Z,5.00
2024-03-06T21:55:02.824Z,5.40
2024-03-06T21:57:29.381Z,7.10
2024-03-06T21:59:57.286Z,5.90
2024-03-06T22:02:24.174Z,8.40
2024-03-06T22:04:50.851Z,10.90
2024-03-06T22:07:17.562Z,7.40
2024-03-06T22:09:44.387Z,8.20
2024-03-06T22:12:12.453Z,10.00
2024-03-06T22:14:43.644Z,7.30
2024-03-06T22:17:11.478Z,6.20
2024-03-06T22:19:38.216Z,8.20
2024-03-06T22:22:04.864Z,8.20
2024-03-06T22:24:31.413Z,8.60
2024-03-06T22:26:58.012Z,8.10
2024-03-06T22:29:24.636Z,6.80
2024-03-06T22:31:51.210Z,6.20
2024-03-06T22:34:17.783Z,7.10
2024-03-06T22:36:44.393Z,5.90
2024-03-06T22:39:11.029Z,6.80
2024-03-06T22:41:38.730Z,7.20
2024-03-06T22:44:06.875Z,9.20
2024-03-06T22:46:44.248Z,13.50
2024-03-06T22:49:17.425Z,8.40
2024-03-06T22:51:43.969Z,8.90
2024-03-06T22:54:10.708Z,7.20
2024-03-06T22:56:38.373Z,8.20
2024-03-06T22:59:05.707Z,7.50
2024-03-06T23:01:32.973Z,8.60
2024-03-06T23:03:59.724Z,5.90
2024-03-06T23:06:26.408Z,5.00
2024-03-06T23:08:53.151Z,7.70
2024-03-06T23:11:20.131Z,8.90
2024-03-06T23:13:46.797Z,6.90
2024-03-06T23:16:13.327Z,5.00
2024-03-06T23:18:41.169Z,5.30
2024-03-06T23:21:07.828Z,8.00
2024-03-06T23:23:34.474Z,6.20
2024-03-06T23:26:01.096Z,8.30
2024-03-06T23:28:27.700Z,10.10
2024-03-06T23:30:54.290Z,9.10
2024-03-06T23:33:20.974Z,8.30
2024-03-06T23:35:47.754Z,8.70
2024-03-06T23:38:14.474Z,6.10
2024-03-06T23:40:40.982Z,5.50
2024-03-06T23:43:08.526Z,6.40
2024-03-06T23:45:35.112Z,5.90
2024-03-06T23:48:01.789Z,4.80
2024-03-06T23:50:28.472Z,5.80
2024-03-06T23:52:55.022Z,7.80
2024-03-06T23:55:21.819Z,6.50
2024-03-06T23:57:48.582Z,6.10
